sensor_id;sensor_type;location;lat;lon;timestamp;P1;durP1;ratioP1;P2;durP2;ratioP2
60464;SDS011;46314;52.392;9.758;2022-10-19T00:00:30;5.00;;;2.28;;
60464;SDS011;46314;52.392;9.758;2022-10-19T00:02:56;8.30;;;2.53;;
60464;SDS011;46314;52.392;9.758;2022-10-19T00:05:23;8.30;;;2.58;;
60464;SDS011;46314;52.392;9.758;2022-10-19T00:07:52;9.32;;;2.55;;
60464;SDS011;46314;52.392;9.758;2022-10-19T00:10:19;7.13;;;2.53;;
60464;SDS011;46314;52.392;9.758;2022-10-19T00:12:45;8.98;;;2.50;;
60464;SDS011;46314;52.392;9.758;2022-10-19T00:15:17;7.68;;;2.42;;
60464;SDS011;46314;52.392;9.758;2022-10-19T00:17:44;7.95;;;2.40;;
60464;SDS011;46314;52.392;9.758;2022-10-19T00:20:11;11.40;;;3.03;;
60464;SDS011;46314;52.392;9.758;2022-10-19T00:22:37;8.90;;;2.65;;
60464;SDS011;46314;52.392;9.758;2022-10-19T00:25:04;8.07;;;2.72;;
60464;SDS011;46314;52.392;9.758;2022-10-19T00:27:31;8.07;;;2.55;;
60464;SDS011;46314;52.392;9.758;2022-10-19T00:29:58;10.85;;;3.25;;
60464;SDS011;46314;52.392;9.758;2022-10-19T00:32:24;10.00;;;2.53;;
60464;SDS011;46314;52.392;9.758;2022-10-19T00:34:53;7.53;;;2.78;;
60464;SDS011;46314;52.392;9.758;2022-10-19T00:37:20;6.00;;;2.47;;
60464;SDS011;46314;52.392;9.758;2022-10-19T00:39:46;7.57;;;2.30;;
60464;SDS011;46314;52.392;9.758;2022-10-19T00:42:13;10.82;;;2.42;;
60464;SDS011;46314;52.392;9.758;2022-10-19T00:44:59;8.65;;;1.95;;
60464;SDS011;46314;52.392;9.758;2022-10-19T00:47:28;9.75;;;2.75;;
60464;SDS011;46314;52.392;9.758;2022-10-19T00:49:57;7.78;;;2.80;;
60464;SDS011;46314;52.392;9.758;2022-10-19T00:52:24;9.32;;;2.85;;
60464;SDS011;46314;52.392;9.758;2022-10-19T00:54:53;6.63;;;2.42;;
60464;SDS011;46314;52.392;9.758;2022-10-19T00:57:21;6.35;;;2.10;;
60464;SDS011;46314;52.392;9.758;2022-10-19T00:59:49;8.15;;;2.70;;
60464;SDS011;46314;52.392;9.758;2022-10-19T01:02:16;7.50;;;3.10;;
60464;SDS011;46314;52.392;9.758;2022-10-19T01:04:43;5.90;;;2.30;;
60464;SDS011;46314;52.392;9.758;2022-10-19T01:07:14;6.47;;;2.22;;
60464;SDS011;46314;52.392;9.758;2022-10-19T01:09:40;7.15;;;2.25;;
60464;SDS011;46314;52.392;9.758;2022-10-19T01:12:09;6.53;;;2.47;;
60464;SDS011;46314;52.392;9.758;2022-10-19T01:14:49;7.85;;;2.55;;
60464;SDS011;46314;52.392;9.758;2022-10-19T01:17:31;7.28;;;2.38;;
60464;SDS011;46314;52.392;9.758;2022-10-19T01:20:22;7.13;;;2.42;;
60464;SDS011;46314;52.392;9.758;2022-10-19T01:23:11;4.57;;;2.10;;
60464;SDS011;46314;52.392;9.758;2022-10-19T01:25:58;4.93;;;2.63;;
60464;SDS011;46314;52.392;9.758;2022-10-19T01:28:43;5.93;;;2.25;;
60464;SDS011;46314;52.392;9.758;2022-10-19T01:31:18;9.88;;;3.28;;
60464;SDS011;46314;52.392;9.758;2022-10-19T01:33:53;5.32;;;2.50;;
60464;SDS011;46314;52.392;9.758;2022-10-19T01:36:31;7.53;;;2.42;;
60464;SDS011;46314;52.392;9.758;2022-10-19T01:39:05;6.75;;;2.35;;
60464;SDS011;46314;52.392;9.758;2022-10-19T01:41:37;6.53;;;3.13;;
60464;SDS011;46314;52.392;9.758;2022-10-19T01:44:12;7.53;;;2.85;;
60464;SDS011;46314;52.392;9.758;2022-10-19T01:46:42;6.05;;;2.25;;
60464;SDS011;46314;52.392;9.758;2022-10-19T01:49:12;10.15;;;2.83;;
60464;SDS011;46314;52.392;9.758;2022-10-19T01:51:45;8.23;;;3.00;;
60464;SDS011;46314;52.392;9.758;2022-10-19T01:54:16;11.15;;;2.92;;
60464;SDS011;46314;52.392;9.758;2022-10-19T01:56:44;6.25;;;2.10;;
60464;SDS011;46314;52.392;9.758;2022-10-19T01:59:13;7.60;;;3.15;;
60464;SDS011;46314;52.392;9.758;2022-10-19T02:01:45;9.05;;;2.90;;
60464;SDS011;46314;52.392;9.758;2022-10-19T02:04:16;4.75;;;2.65;;
60464;SDS011;46314;52.392;9.758;2022-10-19T02:06:45;8.23;;;2.25;;
60464;SDS011;46314;52.392;9.758;2022-10-19T02:09:12;5.85;;;2.50;;
60464;SDS011;46314;52.392;9.758;2022-10-19T02:11:38;7.88;;;2.60;;
60464;SDS011;46314;52.392;9.758;2022-10-19T02:14:05;6.97;;;2.80;;
60464;SDS011;46314;52.392;9.758;2022-10-19T02:16:36;9.00;;;3.35;;
60464;SDS011;46314;52.392;9.758;2022-10-19T02:19:08;9.02;;;2.92;;
60464;SDS011;46314;52.392;9.758;2022-10-19T02:21:37;6.78;;;3.45;;
60464;SDS011;46314;52.392;9.758;2022-10-19T02:24:03;8.02;;;3.85;;
60464;SDS011;46314;52.392;9.758;2022-10-19T02:26:30;8.07;;;3.58;;
60464;SDS011;46314;52.392;9.758;2022-10-19T02:28:57;7.18;;;4.03;;
60464;SDS011;46314;52.392;9.758;2022-10-19T02:31:23;10.60;;;4.63;;
60464;SDS011;46314;52.392;9.758;2022-10-19T02:33:51;13.20;;;5.13;;
60464;SDS011;46314;52.392;9.758;2022-10-19T02:36:19;13.07;;;4.57;;
60464;SDS011;46314;52.392;9.758;2022-10-19T02:38:46;8.77;;;4.85;;
60464;SDS011;46314;52.392;9.758;2022-10-19T02:41:14;10.38;;;4.95;;
60464;SDS011;46314;52.392;9.758;2022-10-19T02:43:44;9.02;;;5.13;;
60464;SDS011;46314;52.392;9.758;2022-10-19T02:46:14;12.82;;;5.40;;
60464;SDS011;46314;52.392;9.758;2022-10-19T02:48:45;9.98;;;4.97;;
60464;SDS011;46314;52.392;9.758;2022-10-19T02:51:26;6.22;;;4.35;;
60464;SDS011;46314;52.392;9.758;2022-10-19T02:53:56;8.30;;;3.95;;
60464;SDS011;46314;52.392;9.758;2022-10-19T02:56:27;6.97;;;4.75;;
60464;SDS011;46314;52.392;9.758;2022-10-19T02:58:54;11.70;;;4.57;;
60464;SDS011;46314;52.392;9.758;2022-10-19T03:01:20;8.05;;;4.07;;
60464;SDS011;46314;52.392;9.758;2022-10-19T03:03:47;8.68;;;4.13;;
60464;SDS011;46314;52.392;9.758;2022-10-19T03:06:14;10.18;;;3.83;;
60464;SDS011;46314;52.392;9.758;2022-10-19T03:08:41;6.65;;;3.63;;
60464;SDS011;46314;52.392;9.758;2022-10-19T03:11:08;9.57;;;4.32;;
60464;SDS011;46314;52.392;9.758;2022-10-19T03:13:34;18.13;;;4.85;;
60464;SDS011;46314;52.392;9.758;2022-10-19T03:16:04;9.38;;;3.80;;
60464;SDS011;46314;52.392;9.758;2022-10-19T03:18:32;7.45;;;3.30;;
60464;SDS011;46314;52.392;9.758;2022-10-19T03:21:02;8.23;;;3.55;;
60464;SDS011;46314;52.392;9.758;2022-10-19T03:23:30;8.65;;;3.60;;
60464;SDS011;46314;52.392;9.758;2022-10-19T03:25:57;17.20;;;4.30;;
60464;SDS011;46314;52.392;9.758;2022-10-19T03:28:24;8.07;;;3.35;;
60464;SDS011;46314;52.392;9.758;2022-10-19T03:30:50;11.77;;;3.15;;
60464;SDS011;46314;52.392;9.758;2022-10-19T03:33:17;8.55;;;3.17;;
60464;SDS011;46314;52.392;9.758;2022-10-19T03:35:43;4.45;;;2.60;;
60464;SDS011;46314;52.392;9.758;2022-10-19T03:38:10;7.30;;;3.00;;
60464;SDS011;46314;52.392;9.758;2022-10-19T03:40:36;10.65;;;3.38;;
60464;SDS011;46314;52.392;9.758;2022-10-19T03:43:04;6.32;;;2.30;;
60464;SDS011;46314;52.392;9.758;2022-10-19T03:45:31;3.63;;;2.22;;
60464;SDS011;46314;52.392;9.758;2022-10-19T03:47:57;10.65;;;2.90;;
60464;SDS011;46314;52.392;9.758;2022-10-19T03:50:24;8.00;;;2.55;;
60464;SDS011;46314;52.392;9.758;2022-10-19T03:52:50;8.48;;;3.28;;
60464;SDS011;46314;52.392;9.758;2022-10-19T03:55:17;6.18;;;2.50;;
60464;SDS011;46314;52.392;9.758;2022-10-19T03:57:43;8.70;;;2.85;;
60464;SDS011;46314;52.392;9.758;2022-10-19T04:00:12;8.85;;;2.85;;
60464;SDS011;46314;52.392;9.758;2022-10-19T04:02:39;13.07;;;2.90;;
60464;SDS011;46314;52.392;9.758;2022-10-19T04:05:06;5.50;;;2.50;;
60464;SDS011;46314;52.392;9.758;2022-10-19T04:07:33;5.93;;;2.58;;
60464;SDS011;46314;52.392;9.758;2022-10-19T04:09:59;9.35;;;3.15;;
60464;SDS011;46314;52.392;9.758;2022-10-19T04:12:26;9.63;;;2.70;;
60464;SDS011;46314;52.392;9.758;2022-10-19T04:14:52;8.20;;;3.17;;
60464;SDS011;46314;52.392;9.758;2022-10-19T04:17:24;9.65;;;3.60;;
60464;SDS011;46314;52.392;9.758;2022-10-19T04:19:51;7.63;;;2.90;;
60464;SDS011;46314;52.392;9.758;2022-10-19T04:22:17;11.70;;;3.72;;
60464;SDS011;46314;52.392;9.758;2022-10-19T04:24:44;8.30;;;2.58;;
60464;SDS011;46314;52.392;9.758;2022-10-19T04:27:10;13.38;;;4.32;;
60464;SDS011;46314;52.392;9.758;2022-10-19T04:29:37;9.07;;;4.03;;
60464;SDS011;46314;52.392;9.758;2022-10-19T04:32:03;7.95;;;2.90;;
60464;SDS011;46314;52.392;9.758;2022-10-19T04:34:31;8.27;;;2.90;;
60464;SDS011;46314;52.392;9.758;2022-10-19T04:37:02;8.02;;;2.53;;
60464;SDS011;46314;52.392;9.758;2022-10-19T04:39:29;9.15;;;2.67;;
60464;SDS011;46314;52.392;9.758;2022-10-19T04:41:55;5.95;;;2.42;;
60464;SDS011;46314;52.392;9.758;2022-10-19T04:44:22;6.85;;;2.40;;
60464;SDS011;46314;52.392;9.758;2022-10-19T04:46:53;8.85;;;2.50;;
60464;SDS011;46314;52.392;9.758;2022-10-19T04:49:20;7.47;;;2.45;;
60464;SDS011;46314;52.392;9.758;2022-10-19T04:51:47;6.32;;;2.38;;
60464;SDS011;46314;52.392;9.758;2022-10-19T04:54:14;8.43;;;2.65;;
60464;SDS011;46314;52.392;9.758;2022-10-19T04:56:40;10.40;;;2.85;;
60464;SDS011;46314;52.392;9.758;2022-10-19T04:59:07;8.13;;;2.75;;
60464;SDS011;46314;52.392;9.758;2022-10-19T05:01:34;15.65;;;2.90;;
60464;SDS011;46314;52.392;9.758;2022-10-19T05:04:01;11.43;;;2.72;;
60464;SDS011;46314;52.392;9.758;2022-10-19T05:06:28;10.50;;;2.63;;
60464;SDS011;46314;52.392;9.758;2022-10-19T05:08:57;7.53;;;2.60;;
60464;SDS011;46314;52.392;9.758;2022-10-19T05:11:24;11.95;;;3.17;;
60464;SDS011;46314;52.392;9.758;2022-10-19T05:13:51;7.40;;;2.78;;
60464;SDS011;46314;52.392;9.758;2022-10-19T05:16:18;9.82;;;3.55;;
60464;SDS011;46314;52.392;9.758;2022-10-19T05:18:46;10.32;;;2.83;;
60464;SDS011;46314;52.392;9.758;2022-10-19T05:21:13;10.00;;;2.95;;
60464;SDS011;46314;52.392;9.758;2022-10-19T05:23:40;5.78;;;2.72;;
60464;SDS011;46314;52.392;9.758;2022-10-19T05:26:09;6.32;;;2.60;;
60464;SDS011;46314;52.392;9.758;2022-10-19T05:28:36;9.48;;;3.13;;
60464;SDS011;46314;52.392;9.758;2022-10-19T05:31:04;10.60;;;2.83;;
60464;SDS011;46314;52.392;9.758;2022-10-19T05:33:32;9.77;;;2.95;;
60464;SDS011;46314;52.392;9.758;2022-10-19T05:35:59;7.90;;;3.00;;
60464;SDS011;46314;52.392;9.758;2022-10-19T05:38:35;10.18;;;2.97;;
60464;SDS011;46314;52.392;9.758;2022-10-19T05:41:01;7.50;;;2.42;;
60464;SDS011;46314;52.392;9.758;2022-10-19T05:43:29;9.45;;;2.40;;
60464;SDS011;46314;52.392;9.758;2022-10-19T05:45:55;11.00;;;3.70;;
60464;SDS011;46314;52.392;9.758;2022-10-19T05:48:22;7.85;;;3.47;;
60464;SDS011;46314;52.392;9.758;2022-10-19T05:50:51;8.13;;;3.15;;
60464;SDS011;46314;52.392;9.758;2022-10-19T05:53:18;11.70;;;3.72;;
60464;SDS011;46314;52.392;9.758;2022-10-19T05:55:45;8.40;;;2.80;;
60464;SDS011;46314;52.392;9.758;2022-10-19T05:58:11;6.80;;;2.60;;
60464;SDS011;46314;52.392;9.758;2022-10-19T06:00:39;8.50;;;2.10;;
60464;SDS011;46314;52.392;9.758;2022-10-19T06:03:05;6.63;;;2.10;;
60464;SDS011;46314;52.392;9.758;2022-10-19T06:05:34;6.45;;;2.10;;
60464;SDS011;46314;52.392;9.758;2022-10-19T06:08:01;5.05;;;1.90;;
60464;SDS011;46314;52.392;9.758;2022-10-19T06:10:27;8.02;;;2.80;;
60464;SDS011;46314;52.392;9.758;2022-10-19T06:12:54;5.45;;;2.33;;
60464;SDS011;46314;52.392;9.758;2022-10-19T06:15:20;7.68;;;2.00;;
60464;SDS011;46314;52.392;9.758;2022-10-19T06:17:48;6.10;;;2.15;;
60464;SDS011;46314;52.392;9.758;2022-10-19T06:20:15;5.60;;;2.25;;
60464;SDS011;46314;52.392;9.758;2022-10-19T06:22:41;8.20;;;2.08;;
60464;SDS011;46314;52.392;9.758;2022-10-19T06:25:08;5.97;;;2.33;;
60464;SDS011;46314;52.392;9.758;2022-10-19T06:27:34;8.00;;;2.38;;
60464;SDS011;46314;52.392;9.758;2022-10-19T06:30:02;8.93;;;2.92;;
60464;SDS011;46314;52.392;9.758;2022-10-19T06:32:29;5.65;;;2.42;;
60464;SDS011;46314;52.392;9.758;2022-10-19T06:34:57;8.32;;;2.38;;
60464;SDS011;46314;52.392;9.758;2022-10-19T06:37:24;6.95;;;2.38;;
60464;SDS011;46314;52.392;9.758;2022-10-19T06:39:50;8.57;;;2.10;;
60464;SDS011;46314;52.392;9.758;2022-10-19T06:42:16;6.05;;;2.05;;
60464;SDS011;46314;52.392;9.758;2022-10-19T06:44:43;6.57;;;2.08;;
60464;SDS011;46314;52.392;9.758;2022-10-19T06:47:09;4.57;;;1.80;;
60464;SDS011;46314;52.392;9.758;2022-10-19T06:49:36;7.18;;;2.50;;
60464;SDS011;46314;52.392;9.758;2022-10-19T06:52:04;6.93;;;2.35;;
60464;SDS011;46314;52.392;9.758;2022-10-19T06:54:30;5.80;;;2.65;;
60464;SDS011;46314;52.392;9.758;2022-10-19T06:56:57;11.75;;;2.55;;
60464;SDS011;46314;52.392;9.758;2022-10-19T06:59:23;6.15;;;2.08;;
60464;SDS011;46314;52.392;9.758;2022-10-19T07:01:50;9.73;;;2.35;;
60464;SDS011;46314;52.392;9.758;2022-10-19T07:04:16;7.07;;;2.20;;
60464;SDS011;46314;52.392;9.758;2022-10-19T07:06:43;9.10;;;2.65;;
60464;SDS011;46314;52.392;9.758;2022-10-19T07:09:11;5.18;;;1.90;;
60464;SDS011;46314;52.392;9.758;2022-10-19T07:11:37;7.15;;;2.20;;
60464;SDS011;46314;52.392;9.758;2022-10-19T07:16:37;11.43;;;2.63;;
60464;SDS011;46314;52.392;9.758;2022-10-19T07:19:04;8.68;;;1.75;;
60464;SDS011;46314;52.392;9.758;2022-10-19T07:21:30;7.60;;;2.53;;
60464;SDS011;46314;52.392;9.758;2022-10-19T07:23:57;9.95;;;2.20;;
60464;SDS011;46314;52.392;9.758;2022-10-19T07:26:25;10.20;;;2.55;;
60464;SDS011;46314;52.392;9.758;2022-10-19T07:28:53;5.57;;;1.70;;
60464;SDS011;46314;52.392;9.758;2022-10-19T07:31:21;10.40;;;2.80;;
60464;SDS011;46314;52.392;9.758;2022-10-19T07:33:50;8.30;;;2.20;;
60464;SDS011;46314;52.392;9.758;2022-10-19T07:36:17;5.05;;;1.80;;
60464;SDS011;46314;52.392;9.758;2022-10-19T07:38:44;11.55;;;2.03;;
60464;SDS011;46314;52.392;9.758;2022-10-19T07:41:11;7.20;;;1.83;;
60464;SDS011;46314;52.392;9.758;2022-10-19T07:43:41;6.25;;;1.88;;
60464;SDS011;46314;52.392;9.758;2022-10-19T07:46:10;5.28;;;2.08;;
60464;SDS011;46314;52.392;9.758;2022-10-19T07:48:38;5.72;;;1.70;;
60464;SDS011;46314;52.392;9.758;2022-10-19T07:51:05;5.45;;;1.40;;
60464;SDS011;46314;52.392;9.758;2022-10-19T07:53:34;11.27;;;2.25;;
60464;SDS011;46314;52.392;9.758;2022-10-19T07:56:02;11.57;;;2.25;;
60464;SDS011;46314;52.392;9.758;2022-10-19T07:58:29;9.80;;;2.25;;
60464;SDS011;46314;52.392;9.758;2022-10-19T08:00:59;5.32;;;1.70;;
60464;SDS011;46314;52.392;9.758;2022-10-19T08:03:26;6.43;;;1.58;;
60464;SDS011;46314;52.392;9.758;2022-10-19T08:06:13;11.07;;;2.08;;
60464;SDS011;46314;52.392;9.758;2022-10-19T08:08:41;8.43;;;2.22;;
60464;SDS011;46314;52.392;9.758;2022-10-19T08:11:09;6.95;;;1.50;;
60464;SDS011;46314;52.392;9.758;2022-10-19T08:13:37;5.28;;;1.40;;
60464;SDS011;46314;52.392;9.758;2022-10-19T08:16:16;6.85;;;2.10;;
60464;SDS011;46314;52.392;9.758;2022-10-19T08:18:46;4.85;;;1.73;;
60464;SDS011;46314;52.392;9.758;2022-10-19T08:21:12;6.35;;;1.50;;
60464;SDS011;46314;52.392;9.758;2022-10-19T08:23:39;5.60;;;1.58;;
60464;SDS011;46314;52.392;9.758;2022-10-19T08:26:05;4.63;;;1.67;;
60464;SDS011;46314;52.392;9.758;2022-10-19T08:28:32;4.10;;;1.70;;
60464;SDS011;46314;52.392;9.758;2022-10-19T08:30:58;4.75;;;1.60;;
60464;SDS011;46314;52.392;9.758;2022-10-19T08:33:26;4.43;;;1.77;;
60464;SDS011;46314;52.392;9.758;2022-10-19T08:35:52;2.95;;;1.52;;
60464;SDS011;46314;52.392;9.758;2022-10-19T08:38:19;3.83;;;1.52;;
60464;SDS011;46314;52.392;9.758;2022-10-19T08:40:45;5.93;;;1.45;;
60464;SDS011;46314;52.392;9.758;2022-10-19T08:43:13;5.13;;;1.63;;
60464;SDS011;46314;52.392;9.758;2022-10-19T08:45:48;5.53;;;1.65;;
60464;SDS011;46314;52.392;9.758;2022-10-19T08:48:22;5.38;;;1.60;;
60464;SDS011;46314;52.392;9.758;2022-10-19T08:50:53;4.90;;;1.73;;
60464;SDS011;46314;52.392;9.758;2022-10-19T08:53:23;6.45;;;1.88;;
60464;SDS011;46314;52.392;9.758;2022-10-19T08:56:02;4.20;;;1.25;;
60464;SDS011;46314;52.392;9.758;2022-10-19T08:59:05;4.50;;;1.80;;
60464;SDS011;46314;52.392;9.758;2022-10-19T09:01:39;5.40;;;1.40;;
60464;SDS011;46314;52.392;9.758;2022-10-19T09:04:13;5.68;;;1.40;;
60464;SDS011;46314;52.392;9.758;2022-10-19T09:09:17;5.03;;;2.10;;
60464;SDS011;46314;52.392;9.758;2022-10-19T09:11:47;3.50;;;1.38;;
60464;SDS011;46314;52.392;9.758;2022-10-19T09:14:17;3.42;;;1.40;;
60464;SDS011;46314;52.392;9.758;2022-10-19T09:16:46;4.40;;;1.40;;
60464;SDS011;46314;52.392;9.758;2022-10-19T09:19:14;4.07;;;1.23;;
60464;SDS011;46314;52.392;9.758;2022-10-19T09:21:47;5.88;;;1.85;;
60464;SDS011;46314;52.392;9.758;2022-10-19T09:24:21;5.38;;;1.30;;
60464;SDS011;46314;52.392;9.758;2022-10-19T09:26:54;4.40;;;1.38;;
60464;SDS011;46314;52.392;9.758;2022-10-19T09:29:23;4.35;;;1.33;;
60464;SDS011;46314;52.392;9.758;2022-10-19T09:31:53;3.45;;;1.58;;
60464;SDS011;46314;52.392;9.758;2022-10-19T09:36:57;4.57;;;1.40;;
60464;SDS011;46314;52.392;9.758;2022-10-19T09:39:25;5.55;;;1.25;;
60464;SDS011;46314;52.392;9.758;2022-10-19T09:41:55;3.63;;;1.75;;
60464;SDS011;46314;52.392;9.758;2022-10-19T09:44:23;4.13;;;1.48;;
60464;SDS011;46314;52.392;9.758;2022-10-19T09:46:52;2.63;;;1.10;;
60464;SDS011;46314;52.392;9.758;2022-10-19T09:49:37;2.70;;;1.70;;
60464;SDS011;46314;52.392;9.758;2022-10-19T09:52:08;3.97;;;1.70;;
60464;SDS011;46314;52.392;9.758;2022-10-19T09:54:49;4.47;;;2.40;;
60464;SDS011;46314;52.392;9.758;2022-10-19T09:57:23;4.40;;;1.80;;
60464;SDS011;46314;52.392;9.758;2022-10-19T09:59:51;5.20;;;1.55;;
60464;SDS011;46314;52.392;9.758;2022-10-19T10:02:18;2.88;;;1.50;;
60464;SDS011;46314;52.392;9.758;2022-10-19T10:04:47;1.85;;;1.15;;
60464;SDS011;46314;52.392;9.758;2022-10-19T10:07:22;2.05;;;1.20;;
60464;SDS011;46314;52.392;9.758;2022-10-19T10:09:52;4.80;;;1.25;;
60464;SDS011;46314;52.392;9.758;2022-10-19T10:12:19;2.95;;;1.42;;
60464;SDS011;46314;52.392;9.758;2022-10-19T10:14:47;4.10;;;1.55;;
60464;SDS011;46314;52.392;9.758;2022-10-19T10:17:17;4.15;;;1.35;;
60464;SDS011;46314;52.392;9.758;2022-10-19T10:19:49;3.22;;;1.60;;
60464;SDS011;46314;52.392;9.758;2022-10-19T10:22:28;4.00;;;1.50;;
60464;SDS011;46314;52.392;9.758;2022-10-19T10:24:57;9.48;;;2.05;;
60464;SDS011;46314;52.392;9.758;2022-10-19T10:27:27;1.83;;;1.20;;
60464;SDS011;46314;52.392;9.758;2022-10-19T10:29:56;3.08;;;1.80;;
60464;SDS011;46314;52.392;9.758;2022-10-19T10:32:23;2.72;;;1.60;;
60464;SDS011;46314;52.392;9.758;2022-10-19T10:34:55;10.27;;;1.88;;
60464;SDS011;46314;52.392;9.758;2022-10-19T10:37:29;3.78;;;1.60;;
60464;SDS011;46314;52.392;9.758;2022-10-19T10:40:03;3.25;;;2.28;;
60464;SDS011;46314;52.392;9.758;2022-10-19T10:42:33;3.97;;;1.88;;
60464;SDS011;46314;52.392;9.758;2022-10-19T10:45:05;3.63;;;2.10;;
60464;SDS011;46314;52.392;9.758;2022-10-19T10:47:42;3.22;;;2.22;;
60464;SDS011;46314;52.392;9.758;2022-10-19T10:50:14;6.72;;;2.55;;
60464;SDS011;46314;52.392;9.758;2022-10-19T10:52:56;5.88;;;2.40;;
60464;SDS011;46314;52.392;9.758;2022-10-19T10:55:23;4.88;;;2.20;;
60464;SDS011;46314;52.392;9.758;2022-10-19T10:57:50;3.42;;;2.00;;
60464;SDS011;46314;52.392;9.758;2022-10-19T11:00:25;3.67;;;1.90;;
60464;SDS011;46314;52.392;9.758;2022-10-19T11:02:55;3.15;;;1.52;;
60464;SDS011;46314;52.392;9.758;2022-10-19T11:05:30;4.50;;;1.33;;
60464;SDS011;46314;52.392;9.758;2022-10-19T11:08:02;4.10;;;1.40;;
60464;SDS011;46314;52.392;9.758;2022-10-19T11:10:38;5.28;;;1.40;;
60464;SDS011;46314;52.392;9.758;2022-10-19T11:13:09;4.00;;;1.40;;
60464;SDS011;46314;52.392;9.758;2022-10-19T11:15:43;4.68;;;1.52;;
60464;SDS011;46314;52.392;9.758;2022-10-19T11:18:18;5.00;;;1.52;;
60464;SDS011;46314;52.392;9.758;2022-10-19T11:20:50;6.05;;;1.65;;
60464;SDS011;46314;52.392;9.758;2022-10-19T11:23:29;4.15;;;2.05;;
60464;SDS011;46314;52.392;9.758;2022-10-19T11:26:08;3.90;;;1.60;;
60464;SDS011;46314;52.392;9.758;2022-10-19T11:28:47;4.80;;;1.80;;
60464;SDS011;46314;52.392;9.758;2022-10-19T11:31:21;3.83;;;1.60;;
60464;SDS011;46314;52.392;9.758;2022-10-19T11:33:58;2.83;;;1.63;;
60464;SDS011;46314;52.392;9.758;2022-10-19T11:36:38;3.58;;;1.48;;
60464;SDS011;46314;52.392;9.758;2022-10-19T11:39:18;4.22;;;1.55;;
60464;SDS011;46314;52.392;9.758;2022-10-19T11:41:58;5.53;;;1.80;;
60464;SDS011;46314;52.392;9.758;2022-10-19T11:44:32;6.45;;;1.85;;
60464;SDS011;46314;52.392;9.758;2022-10-19T11:47:13;3.55;;;1.75;;
60464;SDS011;46314;52.392;9.758;2022-10-19T11:49:53;3.83;;;1.80;;
60464;SDS011;46314;52.392;9.758;2022-10-19T11:52:29;4.03;;;1.70;;
60464;SDS011;46314;52.392;9.758;2022-10-19T11:55:06;4.32;;;1.80;;
60464;SDS011;46314;52.392;9.758;2022-10-19T11:57:42;3.88;;;1.60;;
60464;SDS011;46314;52.392;9.758;2022-10-19T12:00:16;4.78;;;1.65;;
60464;SDS011;46314;52.392;9.758;2022-10-19T12:06:00;5.60;;;1.85;;
60464;SDS011;46314;52.392;9.758;2022-10-19T12:08:35;3.03;;;1.55;;
60464;SDS011;46314;52.392;9.758;2022-10-19T12:11:20;5.88;;;2.35;;
60464;SDS011;46314;52.392;9.758;2022-10-19T12:13:54;7.43;;;2.08;;
60464;SDS011;46314;52.392;9.758;2022-10-19T12:16:24;3.17;;;2.08;;
60464;SDS011;46314;52.392;9.758;2022-10-19T12:19:00;4.65;;;2.30;;
60464;SDS011;46314;52.392;9.758;2022-10-19T12:21:32;7.45;;;2.80;;
60464;SDS011;46314;52.392;9.758;2022-10-19T12:24:01;7.53;;;2.35;;
60464;SDS011;46314;52.392;9.758;2022-10-19T12:26:33;4.93;;;2.47;;
60464;SDS011;46314;52.392;9.758;2022-10-19T12:29:02;3.65;;;2.60;;
60464;SDS011;46314;52.392;9.758;2022-10-19T12:31:31;4.82;;;2.50;;
60464;SDS011;46314;52.392;9.758;2022-10-19T12:34:01;4.38;;;2.67;;
60464;SDS011;46314;52.392;9.758;2022-10-19T12:36:36;10.63;;;2.65;;
60464;SDS011;46314;52.392;9.758;2022-10-19T12:39:11;6.20;;;2.92;;
60464;SDS011;46314;52.392;9.758;2022-10-19T12:41:50;4.82;;;2.75;;
60464;SDS011;46314;52.392;9.758;2022-10-19T12:44:39;6.22;;;2.25;;
60464;SDS011;46314;52.392;9.758;2022-10-19T12:47:24;4.43;;;1.95;;
60464;SDS011;46314;52.392;9.758;2022-10-19T12:49:51;5.35;;;1.95;;
60464;SDS011;46314;52.392;9.758;2022-10-19T12:52:35;6.60;;;2.28;;
60464;SDS011;46314;52.392;9.758;2022-10-19T12:55:10;3.90;;;1.92;;
60464;SDS011;46314;52.392;9.758;2022-10-19T12:57:56;5.60;;;2.42;;
60464;SDS011;46314;52.392;9.758;2022-10-19T13:00:31;6.32;;;2.25;;
60464;SDS011;46314;52.392;9.758;2022-10-19T13:02:59;4.13;;;2.03;;
60464;SDS011;46314;52.392;9.758;2022-10-19T13:05:29;3.30;;;2.20;;
60464;SDS011;46314;52.392;9.758;2022-10-19T13:07:57;2.70;;;1.85;;
60464;SDS011;46314;52.392;9.758;2022-10-19T13:10:27;11.13;;;2.60;;
60464;SDS011;46314;52.392;9.758;2022-10-19T13:12:56;3.38;;;1.95;;
60464;SDS011;46314;52.392;9.758;2022-10-19T13:18:59;5.28;;;2.00;;
60464;SDS011;46314;52.392;9.758;2022-10-19T13:21:47;5.15;;;2.40;;
60464;SDS011;46314;52.392;9.758;2022-10-19T13:24:19;2.13;;;1.90;;
60464;SDS011;46314;52.392;9.758;2022-10-19T13:29:55;5.22;;;1.90;;
60464;SDS011;46314;52.392;9.758;2022-10-19T13:32:33;4.05;;;1.83;;
60464;SDS011;46314;52.392;9.758;2022-10-19T13:35:22;6.30;;;2.92;;
60464;SDS011;46314;52.392;9.758;2022-10-19T13:38:09;5.35;;;1.83;;
60464;SDS011;46314;52.392;9.758;2022-10-19T13:40:55;3.35;;;2.00;;
60464;SDS011;46314;52.392;9.758;2022-10-19T13:43:27;3.90;;;1.88;;
60464;SDS011;46314;52.392;9.758;2022-10-19T13:46:00;4.10;;;2.20;;
60464;SDS011;46314;52.392;9.758;2022-10-19T13:48:32;4.88;;;2.67;;
60464;SDS011;46314;52.392;9.758;2022-10-19T13:51:08;6.25;;;2.28;;
60464;SDS011;46314;52.392;9.758;2022-10-19T13:53:45;5.70;;;2.47;;
60464;SDS011;46314;52.392;9.758;2022-10-19T13:56:23;5.57;;;2.47;;
60464;SDS011;46314;52.392;9.758;2022-10-19T13:59:09;6.80;;;2.55;;
60464;SDS011;46314;52.392;9.758;2022-10-19T14:01:55;3.95;;;2.28;;
60464;SDS011;46314;52.392;9.758;2022-10-19T14:07:16;4.72;;;2.53;;
60464;SDS011;46314;52.392;9.758;2022-10-19T14:09:55;5.35;;;2.00;;
60464;SDS011;46314;52.392;9.758;2022-10-19T14:12:28;6.88;;;2.15;;
60464;SDS011;46314;52.392;9.758;2022-10-19T14:14:55;5.85;;;2.25;;
60464;SDS011;46314;52.392;9.758;2022-10-19T14:17:23;7.13;;;2.00;;
60464;SDS011;46314;52.392;9.758;2022-10-19T14:19:52;7.93;;;2.10;;
60464;SDS011;46314;52.392;9.758;2022-10-19T14:22:23;5.50;;;2.10;;
60464;SDS011;46314;52.392;9.758;2022-10-19T14:24:58;4.88;;;2.58;;
60464;SDS011;46314;52.392;9.758;2022-10-19T14:27:25;7.50;;;2.10;;
60464;SDS011;46314;52.392;9.758;2022-10-19T14:29:52;7.15;;;2.13;;
60464;SDS011;46314;52.392;9.758;2022-10-19T14:32:20;9.40;;;2.90;;
60464;SDS011;46314;52.392;9.758;2022-10-19T14:34:50;6.25;;;2.40;;
60464;SDS011;46314;52.392;9.758;2022-10-19T14:37:19;5.90;;;2.15;;
60464;SDS011;46314;52.392;9.758;2022-10-19T14:39:57;9.93;;;2.55;;
60464;SDS011;46314;52.392;9.758;2022-10-19T14:42:34;5.82;;;2.70;;
60464;SDS011;46314;52.392;9.758;2022-10-19T14:45:08;7.40;;;4.97;;
60464;SDS011;46314;52.392;9.758;2022-10-19T14:47:50;5.83;;;2.60;;
60464;SDS011;46314;52.392;9.758;2022-10-19T14:50:18;6.65;;;2.50;;
60464;SDS011;46314;52.392;9.758;2022-10-19T14:52:48;3.92;;;2.10;;
60464;SDS011;46314;52.392;9.758;2022-10-19T14:55:17;8.57;;;2.47;;
60464;SDS011;46314;52.392;9.758;2022-10-19T14:57:46;6.85;;;2.08;;
60464;SDS011;46314;52.392;9.758;2022-10-19T15:00:17;5.43;;;2.75;;
60464;SDS011;46314;52.392;9.758;2022-10-19T15:02:47;3.88;;;2.28;;
60464;SDS011;46314;52.392;9.758;2022-10-19T15:05:24;5.00;;;2.30;;
60464;SDS011;46314;52.392;9.758;2022-10-19T15:07:53;8.82;;;2.70;;
60464;SDS011;46314;52.392;9.758;2022-10-19T15:10:21;4.70;;;2.25;;
60464;SDS011;46314;52.392;9.758;2022-10-19T15:12:49;13.27;;;4.65;;
60464;SDS011;46314;52.392;9.758;2022-10-19T15:15:18;9.70;;;3.22;;
60464;SDS011;46314;52.392;9.758;2022-10-19T15:17:49;17.58;;;8.60;;
60464;SDS011;46314;52.392;9.758;2022-10-19T15:20:26;8.77;;;4.63;;
60464;SDS011;46314;52.392;9.758;2022-10-19T15:22:54;5.53;;;3.53;;
60464;SDS011;46314;52.392;9.758;2022-10-19T15:25:31;5.10;;;2.38;;